createdAt,value
2023-02-11T00:00:29.220Z,100358.16
2023-02-11T00:03:32.196Z,100350.19
2023-02-11T00:06:35.665Z,100350.06
2023-02-11T00:09:38.444Z,100355.25
2023-02-11T00:12:41.137Z,100347.03
2023-02-11T00:15:43.934Z,100324.63
2023-02-11T00:18:46.708Z,100325.44
2023-02-11T00:21:50.175Z,100333.66
2023-02-11T00:24:52.745Z,100336.09
2023-02-11T00:27:55.570Z,100330.91
2023-02-11T00:30:58.692Z,100333.41
2023-02-11T00:34:01.859Z,100324.47
2023-02-11T00:37:04.936Z,100321.84
2023-02-11T00:40:08.375Z,100338.09
2023-02-11T00:43:11.002Z,100330.72
2023-02-11T00:46:14.494Z,100334.03
2023-02-11T00:49:17.527Z,100329.59
2023-02-11T00:52:21.482Z,100323.44
2023-02-11T00:55:24.039Z,100319.00
2023-02-11T00:58:27.574Z,100316.38
2023-02-11T01:01:30.371Z,100320.12
2023-02-11T01:04:33.428Z,100308.72
2023-02-11T01:07:35.974Z,100306.09
2023-02-11T01:10:39.030Z,100293.69
2023-02-11T01:13:42.217Z,100266.56
2023-02-11T01:16:45.171Z,100292.59
2023-02-11T01:19:49.227Z,100287.53
2023-02-11T01:22:52.179Z,100288.31
2023-02-11T01:25:54.763Z,100288.22
2023-02-11T01:29:00.054Z,100281.84
2023-02-11T01:32:03.476Z,100280.13
2023-02-11T01:35:07.081Z,100248.78
2023-02-11T01:38:21.106Z,100277.56
2023-02-11T01:41:24.029Z,100282.75
2023-02-11T01:44:36.524Z,100286.16
2023-02-11T01:47:39.393Z,100279.06
2023-02-11T01:50:43.472Z,100280.00
2023-02-11T01:54:05.102Z,100270.28
2023-02-11T01:57:23.383Z,100273.91
2023-02-11T02:00:36.246Z,100259.31
2023-02-11T02:03:42.862Z,100269.97
2023-02-11T02:06:56.562Z,100271.75
2023-02-11T02:10:04.179Z,100269.19
2023-02-11T02:13:06.758Z,100264.81
2023-02-11T02:16:14.682Z,100264.72
2023-02-11T02:19:42.125Z,100265.59
2023-02-11T02:22:58.663Z,100267.25
2023-02-11T02:26:49.281Z,100260.13
2023-02-11T02:30:14.103Z,100261.09
2023-02-11T02:33:47.862Z,100259.31
2023-02-11T02:37:02.621Z,100259.16
2023-02-11T02:40:11.980Z,100259.38
2023-02-11T02:43:15.645Z,100250.84
2023-02-11T02:46:24.277Z,100225.88
2023-02-11T02:49:27.308Z,100248.75
2023-02-11T02:52:42.159Z,100256.00
2023-02-11T02:56:09.934Z,100246.50
2023-02-11T02:59:22.733Z,100236.13
2023-02-11T03:02:36.632Z,100233.69
2023-02-11T03:06:00.739Z,100239.97
2023-02-11T03:09:14.918Z,100234.72
2023-02-11T03:12:17.804Z,100236.53
2023-02-11T03:15:21.418Z,100234.84
2023-02-11T03:18:27.585Z,100229.59
2023-02-11T03:21:33.251Z,100232.22
2023-02-11T03:24:38.124Z,100226.06
2023-02-11T03:27:43.413Z,100229.44
2023-02-11T03:30:50.421Z,100183.84
2023-02-11T03:34:22.605Z,100212.59
2023-02-11T03:37:45.925Z,100216.81
2023-02-11T03:40:50.060Z,100214.06
2023-02-11T03:43:55.804Z,100201.59
2023-02-11T03:46:59.075Z,100197.88
2023-02-11T03:50:05.293Z,100180.91
2023-02-11T03:53:08.201Z,100182.56
2023-02-11T03:56:14.955Z,100150.22
2023-02-11T03:59:17.901Z,100174.44
2023-02-11T04:02:22.501Z,100171.00
2023-02-11T04:05:25.499Z,100163.03
2023-02-11T04:08:28.246Z,100155.09
2023-02-11T04:11:31.069Z,100146.16
2023-02-11T04:14:33.744Z,100149.59
2023-02-11T04:17:36.823Z,100140.75
2023-02-11T04:20:39.550Z,100143.28
2023-02-11T04:23:42.673Z,100139.63
2023-02-11T04:26:45.533Z,100142.97
2023-02-11T04:29:48.802Z,100144.41
2023-02-11T04:32:51.348Z,100146.06
2023-02-11T04:35:54.246Z,100145.81
2023-02-11T04:38:57.011Z,100143.94
2023-02-11T04:42:00.053Z,100143.13
2023-02-11T04:45:02.812Z,100148.03
2023-02-11T04:48:05.706Z,100147.00
2023-02-11T04:51:08.620Z,100134.69
2023-02-11T04:54:11.979Z,100127.34
2023-02-11T04:57:14.455Z,100133.78
2023-02-11T05:00:17.726Z,100126.06
2023-02-11T05:03:20.578Z,100137.47
2023-02-11T05:06:23.460Z,100144.50
2023-02-11T05:09:26.042Z,100146.50
2023-02-11T05:12:28.915Z,100145.75
2023-02-11T05:15:31.415Z,100145.13
2023-02-11T05:18:34.770Z,100158.44
2023-02-11T05:21:37.409Z,100160.25
2023-02-11T05:24:40.534Z,100147.94
2023-02-11T05:27:43.113Z,100148.72
2023-02-11T05:30:45.975Z,100142.75
2023-02-11T05:33:48.714Z,100147.12
2023-02-11T05:36:51.502Z,100138.25
2023-02-11T05:39:54.265Z,100128.56
2023-02-11T05:42:57.082Z,100139.00
2023-02-11T05:45:59.690Z,100104.34
2023-02-11T05:49:02.654Z,100130.94
2023-02-11T05:52:05.653Z,100131.75
2023-02-11T05:55:08.732Z,100131.75
2023-02-11T05:58:11.268Z,100129.84
2023-02-11T06:01:14.146Z,100132.31
2023-02-11T06:04:16.939Z,100124.31
2023-02-11T06:07:19.839Z,100128.53
2023-02-11T06:10:22.892Z,100130.28
2023-02-11T06:13:25.477Z,100138.34
2023-02-11T06:16:28.766Z,100132.13
2023-02-11T06:19:31.493Z,100122.72
2023-02-11T06:22:35.092Z,100122.97
2023-02-11T06:25:37.885Z,100115.25
2023-02-11T06:28:42.064Z,100113.31
2023-02-11T06:31:44.865Z,100112.28
2023-02-11T06:34:47.635Z,100106.62
2023-02-11T06:37:50.212Z,100103.22
2023-02-11T06:40:53.097Z,100111.25
2023-02-11T06:43:55.586Z,100118.44
2023-02-11T06:46:58.451Z,100110.88
2023-02-11T06:50:00.988Z,100105.16
2023-02-11T06:53:03.937Z,100101.28
2023-02-11T06:56:09.652Z,100109.44
2023-02-11T06:59:16.683Z,100105.50
2023-02-11T07:02:21.000Z,100103.25
2023-02-11T07:05:24.134Z,100103.62
2023-02-11T07:08:26.982Z,100105.69
2023-02-11T07:11:30.090Z,100079.88
2023-02-11T07:14:32.935Z,100099.28
2023-02-11T07:17:37.997Z,100097.81
2023-02-11T07:20:41.824Z,100105.94
2023-02-11T07:23:45.380Z,100102.69
2023-02-11T07:26:47.873Z,100098.63
2023-02-11T07:29:50.791Z,100095.66
2023-02-11T07:32:53.761Z,100095.34
2023-02-11T07:36:00.555Z,100095.28
2023-02-11T07:39:04.024Z,100086.16
2023-02-11T07:42:06.915Z,100057.09
2023-02-11T07:45:09.875Z,100087.13
2023-02-11T07:48:12.687Z,99996.97
2023-02-11T07:51:21.012Z,100082.25
2023-02-11T07:54:24.437Z,100079.84
2023-02-11T07:57:27.521Z,100069.62
2023-02-11T08:00:30.675Z,100080.59
2023-02-11T08:03:34.949Z,100083.59
2023-02-11T08:06:41.496Z,100072.50
2023-02-11T08:09:44.611Z,100068.41
2023-02-11T08:12:47.430Z,100068.75
2023-02-11T08:15:50.513Z,100063.94
2023-02-11T08:18:53.796Z,100061.69
2023-02-11T08:21:57.208Z,100064.72
2023-02-11T08:24:59.798Z,100043.63
2023-02-11T08:28:03.037Z,100071.56
2023-02-11T08:31:10.644Z,100080.44
2023-02-11T08:34:14.945Z,100074.16
2023-02-11T08:37:17.796Z,100074.94
2023-02-11T08:40:21.145Z,100082.94
2023-02-11T08:43:23.623Z,100082.97
2023-02-11T08:46:27.245Z,100076.44
2023-02-11T08:49:30.831Z,100076.78
2023-02-11T08:52:33.807Z,100079.19
2023-02-11T08:55:36.341Z,100068.44
2023-02-11T08:58:39.194Z,100064.25
2023-02-11T09:01:42.003Z,100063.50
2023-02-11T09:04:44.934Z,100063.78
2023-02-11T09:07:47.413Z,100065.53
2023-02-11T09:10:50.436Z,100059.47
2023-02-11T09:13:54.501Z,100053.44
2023-02-11T09:16:57.649Z,100039.88
2023-02-11T09:20:02.534Z,100050.16
2023-02-11T09:23:06.975Z,100049.25
2023-02-11T09:26:13.929Z,100041.06
2023-02-11T09:29:16.811Z,100036.28
2023-02-11T09:32:19.496Z,100024.06
2023-02-11T09:35:23.285Z,100037.19
2023-02-11T09:38:25.896Z,100032.00
2023-02-11T09:41:50.257Z,100019.13
2023-02-11T09:44:53.026Z,100030.41
2023-02-11T09:47:58.316Z,100027.19
2023-02-11T09:51:01.740Z,100043.47
2023-02-11T09:54:11.663Z,100029.25
2023-02-11T09:57:26.773Z,100034.53
2023-02-11T10:00:40.090Z,100025.88
2023-02-11T10:04:11.604Z,100010.81
2023-02-11T10:07:21.717Z,100015.00
2023-02-11T10:10:47.923Z,100009.06
2023-02-11T10:13:56.944Z,100004.75
2023-02-11T10:17:17.190Z,100002.06
2023-02-11T10:20:35.503Z,100014.88
2023-02-11T10:23:41.486Z,100006.84
2023-02-11T10:26:45.426Z,99999.66
2023-02-11T10:29:53.533Z,100009.38
2023-02-11T10:33:22.372Z,100007.66
2023-02-11T10:36:34.347Z,99968.00
2023-02-11T10:39:37.005Z,99985.22
2023-02-11T10:42:42.315Z,99982.81
2023-02-11T10:45:47.035Z,99974.88
2023-02-11T10:48:53.859Z,99967.53
2023-02-11T10:52:12.604Z,99971.94
2023-02-11T10:55:20.942Z,99962.19
2023-02-11T10:58:27.165Z,99948.09
2023-02-11T11:01:46.302Z,99943.84
2023-02-11T11:04:48.946Z,99942.84
2023-02-11T11:07:57.523Z,99939.87
2023-02-11T11:11:07.362Z,99935.34
2023-02-11T11:14:19.711Z,99916.03
2023-02-11T11:17:22.201Z,99916.94
2023-02-11T11:20:29.120Z,99919.75
2023-02-11T11:23:32.285Z,99910.75
2023-02-11T11:26:46.641Z,99908.94
2023-02-11T11:29:52.025Z,99893.41
2023-02-11T11:32:55.146Z,99882.81
2023-02-11T11:35:59.874Z,99885.84
2023-02-11T11:39:15.614Z,99887.59
2023-02-11T11:42:39.248Z,99886.25
2023-02-11T11:45:59.568Z,99881.03
2023-02-11T11:49:25.726Z,99875.81
2023-02-11T11:52:45.475Z,99871.63
2023-02-11T11:55:59.591Z,99875.41
2023-02-11T11:59:06.693Z,99860.38
2023-02-11T12:02:34.229Z,99863.69
2023-02-11T12:06:07.764Z,99866.63
2023-02-11T12:09:55.279Z,99863.16
2023-02-11T12:13:12.427Z,99854.44
2023-02-11T12:16:25.215Z,99841.41
2023-02-11T12:19:38.660Z,99832.50
2023-02-11T12:23:02.323Z,99834.25
2023-02-11T12:26:11.003Z,99815.44
2023-02-11T12:29:22.732Z,99793.16
2023-02-11T12:33:03.249Z,99797.09
2023-02-11T12:36:23.035Z,99794.56
2023-02-11T12:39:47.744Z,99796.22
2023-02-11T12:43:16.710Z,99783.78
2023-02-11T12:46:28.359Z,99804.38
2023-02-11T12:49:37.582Z,99795.66
2023-02-11T12:52:59.225Z,99793.19
2023-02-11T12:56:06.731Z,99792.34
2023-02-11T12:59:17.448Z,99787.87
2023-02-11T13:02:32.298Z,99771.84
2023-02-11T13:05:42.744Z,99784.34
2023-02-11T13:08:50.491Z,99783.50
2023-02-11T13:11:55.674Z,99779.53
2023-02-11T13:15:03.918Z,99771.53
2023-02-11T13:18:25.786Z,99772.34
2023-02-11T13:21:43.126Z,99758.25
2023-02-11T13:25:08.356Z,99749.91
2023-02-11T13:28:41.448Z,99733.72
2023-02-11T13:31:56.680Z,99724.13
2023-02-11T13:35:01.262Z,99727.56
2023-02-11T13:38:28.969Z,99706.19
2023-02-11T13:41:32.894Z,99716.25
2023-02-11T13:44:35.784Z,99712.97
2023-02-11T13:47:38.608Z,99717.50
2023-02-11T13:50:48.209Z,99707.81
2023-02-11T13:53:56.310Z,99715.88
2023-02-11T13:57:21.312Z,99712.34
2023-02-11T14:00:39.062Z,99724.78
2023-02-11T14:04:39.440Z,99731.03
2023-02-11T14:08:29.740Z,99731.91
2023-02-11T14:11:32.757Z,99728.38
2023-02-11T14:15:00.340Z,99728.38
2023-02-11T14:18:43.774Z,99718.59
2023-02-11T14:21:46.993Z,99709.69
2023-02-11T14:24:58.884Z,99707.91
2023-02-11T14:28:12.899Z,99712.37
2023-02-11T14:31:44.022Z,99723.91
2023-02-11T14:35:31.761Z,99726.56
2023-02-11T14:38:52.973Z,99731.91
2023-02-11T14:41:56.211Z,99735.47
2023-02-11T14:45:04.983Z,99738.12
2023-02-11T14:48:30.122Z,99747.88
2023-02-11T14:51:36.799Z,99742.56
2023-02-11T14:54:41.002Z,99741.66
2023-02-11T14:57:45.750Z,99738.97
2023-02-11T15:00:51.541Z,99707.84
2023-02-11T15:03:58.757Z,99697.19
2023-02-11T15:07:05.770Z,99686.53
2023-02-11T15:10:28.585Z,99676.75
2023-02-11T15:13:32.063Z,99681.19
2023-02-11T15:16:35.225Z,99684.72
2023-02-11T15:19:41.223Z,99685.62
2023-02-11T15:22:46.285Z,99684.72
2023-02-11T15:25:55.841Z,99690.94
2023-02-11T15:28:59.855Z,99698.03
2023-02-11T15:32:17.747Z,99706.03
2023-02-11T15:35:22.174Z,99695.34
2023-02-11T15:38:24.882Z,99691.81
2023-02-11T15:41:38.623Z,99690.00
2023-02-11T15:44:41.471Z,99677.56
2023-02-11T15:47:53.912Z,99677.53
2023-02-11T15:51:00.536Z,99667.72
2023-02-11T15:54:07.920Z,99678.34
2023-02-11T15:57:10.831Z,99667.66
2023-02-11T16:00:18.927Z,99656.09
2023-02-11T16:03:24.524Z,99648.09
2023-02-11T16:06:40.317Z,99645.38
2023-02-11T16:09:43.613Z,99636.50
2023-02-11T16:13:19.173Z,99637.38
2023-02-11T16:16:24.544Z,99628.44
2023-02-11T16:19:28.541Z,99630.19
2023-02-11T16:22:35.423Z,99614.19
2023-02-11T16:25:38.198Z,99628.31
2023-02-11T16:28:41.830Z,99621.13
2023-02-11T16:31:47.071Z,99619.34
2023-02-11T16:34:51.054Z,99626.38
2023-02-11T16:37:54.934Z,99644.06
2023-02-11T16:40:58.350Z,99639.56
2023-02-11T16:44:01.056Z,99638.62
2023-02-11T16:47:05.976Z,99627.97
2023-02-11T16:50:11.908Z,99620.84
2023-02-11T16:53:20.041Z,99601.25
2023-02-11T16:56:22.872Z,99627.06
2023-02-11T16:59:25.965Z,99650.06
2023-02-11T17:02:31.699Z,99657.09
2023-02-11T17:05:49.418Z,99672.19
2023-02-11T17:08:57.138Z,99669.53
2023-02-11T17:12:00.444Z,99675.72
2023-02-11T17:15:04.890Z,99678.38
2023-02-11T17:18:12.429Z,99673.06
2023-02-11T17:21:15.674Z,99673.06
2023-02-11T17:24:20.269Z,99653.50
2023-02-11T17:27:23.374Z,99672.13
2023-02-11T17:30:26.578Z,99671.19
2023-02-11T17:33:29.482Z,99667.63
2023-02-11T17:36:33.421Z,99664.03
2023-02-11T17:39:40.007Z,99665.78
2023-02-11T17:42:43.199Z,99664.84
2023-02-11T17:45:46.022Z,99667.50
2023-02-11T17:48:49.307Z,99664.84
2023-02-11T17:51:51.874Z,99657.78
2023-02-11T17:54:55.262Z,99662.19
2023-02-11T17:57:57.928Z,99662.16
2023-02-11T18:01:01.040Z,99657.69
2023-02-11T18:04:04.688Z,99645.28
2023-02-11T18:07:07.848Z,99637.28
2023-02-11T18:10:11.712Z,99637.25
2023-02-11T18:13:14.404Z,99629.28
2023-02-11T18:16:17.559Z,99623.97
2023-02-11T18:19:20.827Z,99622.19
2023-02-11T18:22:24.686Z,99598.19
2023-02-11T18:25:27.270Z,99616.00
2023-02-11T18:28:30.650Z,99623.09
2023-02-11T18:31:35.375Z,99622.22
2023-02-11T18:34:40.787Z,99616.00
2023-02-11T18:37:43.570Z,99622.19
2023-02-11T18:40:47.559Z,99620.44
2023-02-11T18:43:50.466Z,99620.47
2023-02-11T18:46:54.144Z,99616.94
2023-02-11T18:49:56.859Z,99618.66
2023-02-11T18:53:02.321Z,99624.91
2023-02-11T18:56:14.398Z,99617.78
2023-02-11T18:59:17.967Z,99614.28
2023-02-11T19:02:20.998Z,99614.31
2023-02-11T19:05:28.730Z,99612.56
2023-02-11T19:08:32.190Z,99614.31
2023-02-11T19:11:49.923Z,99539.97
2023-02-11T19:14:52.952Z,99615.66
2023-02-11T19:17:56.433Z,99629.72
2023-02-11T19:20:59.500Z,99626.97
2023-02-11T19:24:07.694Z,99618.94
2023-02-11T19:27:13.366Z,99629.56
2023-02-11T19:30:22.795Z,99627.75
2023-02-11T19:33:42.842Z,99623.28
2023-02-11T19:36:48.631Z,99621.47
2023-02-11T19:39:58.274Z,99622.34
2023-02-11T19:43:02.143Z,99617.03
2023-02-11T19:46:07.034Z,99610.69
2023-02-11T19:49:13.018Z,99623.19
2023-02-11T19:52:15.648Z,99611.63
2023-02-11T19:55:18.931Z,99611.56
2023-02-11T19:58:21.739Z,99610.66
2023-02-11T20:01:25.977Z,99596.47
2023-02-11T20:04:32.121Z,99606.16
2023-02-11T20:07:35.356Z,99606.16
2023-02-11T20:10:39.040Z,99599.97
2023-02-11T20:13:42.288Z,99592.91
2023-02-11T20:16:49.492Z,99598.22
2023-02-11T20:19:53.473Z,99602.69
2023-02-11T20:22:58.584Z,99585.00
2023-02-11T20:26:15.498Z,99592.06
2023-02-11T20:29:18.840Z,99586.81
2023-02-11T20:32:21.705Z,99590.41
2023-02-11T20:35:28.034Z,99591.25
2023-02-11T20:38:30.903Z,99584.16
2023-02-11T20:41:35.908Z,99577.97
2023-02-11T20:44:38.983Z,99577.97
2023-02-11T20:47:42.545Z,99572.72
2023-02-11T20:50:48.366Z,99572.72
2023-02-11T20:53:52.539Z,99567.44
2023-02-11T20:56:56.911Z,99567.44
2023-02-11T21:00:00.271Z,99569.19
2023-02-11T21:03:04.704Z,99571.84
2023-02-11T21:06:08.460Z,99576.28
2023-02-11T21:09:14.284Z,99571.84
2023-02-11T21:12:17.433Z,99570.06
2023-02-11T21:15:20.527Z,99574.56
2023-02-11T21:18:23.866Z,99577.19
2023-02-11T21:21:27.117Z,99574.53
2023-02-11T21:24:32.987Z,99528.34
2023-02-11T21:27:36.320Z,99562.09
2023-02-11T21:30:40.525Z,99579.88
2023-02-11T21:33:43.457Z,99563.94
2023-02-11T21:36:46.617Z,99567.47
2023-02-11T21:39:50.011Z,99566.56
2023-02-11T21:42:53.775Z,99563.84
2023-02-11T21:45:56.651Z,99579.84
2023-02-11T21:49:00.519Z,99567.44
2023-02-11T21:52:03.252Z,99563.88
2023-02-11T21:55:06.795Z,99578.03
2023-02-11T21:58:10.495Z,99570.94
2023-02-11T22:01:20.689Z,99572.66
2023-02-11T22:04:23.723Z,99567.31
2023-02-11T22:07:28.088Z,99564.59
2023-02-11T22:10:31.133Z,99561.00
2023-02-11T22:13:34.362Z,99553.88
2023-02-11T22:16:37.491Z,99551.16
2023-02-11T22:19:40.198Z,99553.75
2023-02-11T22:22:43.229Z,99559.91
2023-02-11T22:25:45.826Z,99546.59
2023-02-11T22:28:49.874Z,99559.84
2023-02-11T22:31:52.486Z,99565.97
2023-02-11T22:34:55.389Z,99558.91
2023-02-11T22:37:58.042Z,99550.94
2023-02-11T22:41:06.032Z,99550.94
2023-02-11T22:44:09.085Z,99560.66
2023-02-11T22:47:12.056Z,99564.16
2023-02-11T22:50:14.633Z,99567.75
2023-02-11T22:53:17.569Z,99555.34
2023-02-11T22:56:20.643Z,99552.72
2023-02-11T22:59:23.699Z,99561.53
2023-02-11T23:02:26.322Z,99567.72
2023-02-11T23:05:29.444Z,99569.47
2023-02-11T23:08:33.057Z,99562.44
2023-02-11T23:11:36.058Z,99562.47
2023-02-11T23:14:38.781Z,99557.16
2023-02-11T23:17:41.657Z,99564.28
2023-02-11T23:20:44.750Z,99556.25
2023-02-11T23:23:49.298Z,99555.38
2023-02-11T23:26:51.919Z,99555.34
2023-02-11T23:29:57.896Z,99545.50
2023-02-11T23:33:00.533Z,99557.03
2023-02-11T23:36:03.579Z,99545.44
2023-02-11T23:39:06.236Z,99527.75
2023-02-11T23:42:09.320Z,99525.06
2023-02-11T23:45:12.221Z,99529.44
2023-02-11T23:48:15.240Z,99531.19
2023-02-11T23:51:18.165Z,99547.16
2023-02-11T23:54:21.019Z,99549.75
2023-02-11T23:57:23.662Z,99545.38
